Time;durP1;ratioP1;P1;durP2;ratioP2;P2;SDS_P1;SDS_P2;PMS_P1;PMS_P2;Temp;Humidity;BMP_temperature;BMP_pressure;BME280_temperature;BME280_humidity;BME280_pressure;Samples;Min_cycle;Max_cycle;Signal;HPM_P1;HPM_P2
2023/05/08 00:01:57;;;;;;;6.70;4.20;;;15.40;99.90;;;;;;5111704;28;20447;-74
2023/05/08 00:04:23;;;;;;;6.17;4.17;;;15.40;99.90;;;;;;5111957;28;20807;-75
2023/05/08 00:06:51;;;;;;;6.40;3.77;;;15.40;99.90;;;;;;5110804;28;20501;-75
2023/05/08 00:09:18;;;;;;;7.27;4.77;;;15.50;99.90;;;;;;5111388;28;21038;-75
2023/05/08 00:11:45;;;;;;;6.97;4.47;;;15.50;99.90;;;;;;5110260;28;20455;-75
2023/05/08 00:14:13;;;;;;;6.03;3.90;;;15.40;99.90;;;;;;5111786;28;20852;-75
2023/05/08 00:16:40;;;;;;;4.97;3.80;;;15.40;99.90;;;;;;5110111;28;20543;-77
2023/05/08 00:19:07;;;;;;;5.03;3.50;;;15.30;99.90;;;;;;5111731;28;20448;-76
2023/05/08 00:21:34;;;;;;;5.10;3.27;;;15.40;99.90;;;;;;5111047;28;20443;-75
2023/05/08 00:24:01;;;;;;;4.80;2.97;;;15.40;99.90;;;;;;5110920;28;20452;-75
2023/05/08 00:26:27;;;;;;;5.93;4.43;;;15.40;99.90;;;;;;5110448;28;20450;-75
2023/05/08 00:28:54;;;;;;;4.60;3.67;;;15.50;99.90;;;;;;5111966;27;20443;-76
2023/05/08 00:31:22;;;;;;;5.73;3.73;;;15.50;99.90;;;;;;5111677;28;20455;-76
2023/05/08 00:33:49;;;;;;;4.47;3.30;;;15.60;99.90;;;;;;5111035;28;20856;-75
2023/05/08 00:36:16;;;;;;;5.47;3.60;;;15.60;99.90;;;;;;5111377;28;20521;-74
2023/05/08 00:38:43;;;;;;;5.53;3.90;;;15.50;99.90;;;;;;5110841;28;20494;-74
2023/05/08 00:41:10;;;;;;;6.50;4.83;;;15.60;99.90;;;;;;5110635;28;20935;-75
2023/05/08 00:43:38;;;;;;;6.60;4.20;;;15.60;99.90;;;;;;5110752;28;20495;-75
2023/05/08 00:46:05;;;;;;;7.80;5.53;;;15.40;99.90;;;;;;5111085;28;20448;-75
2023/05/08 00:48:36;;;;;;;8.70;6.00;;;15.30;99.90;;;;;;5109711;28;20571;-75
2023/05/08 00:51:06;;;;;;;8.50;3.70;;;15.30;99.90;;;;;;5111464;28;20804;-75
2023/05/08 00:53:37;;;;;;;5.87;4.17;;;15.30;99.90;;;;;;5111839;28;20440;-75
2023/05/08 00:56:06;;;;;;;7.23;4.40;;;15.30;99.90;;;;;;5111101;28;20461;-75
2023/05/08 00:58:32;;;;;;;6.60;4.20;;;15.40;99.90;;;;;;5110186;28;20455;-75
2023/05/08 01:01:00;;;;;;;7.47;4.27;;;15.40;99.90;;;;;;5110435;28;20451;-75
2023/05/08 01:03:28;;;;;;;4.73;3.47;;;15.40;99.90;;;;;;5110917;28;20960;-75
2023/05/08 01:05:57;;;;;;;5.67;3.90;;;15.50;99.90;;;;;;5110321;28;20527;-75
2023/05/08 01:08:24;;;;;;;6.03;3.97;;;15.30;99.90;;;;;;5110900;28;20499;-75
2023/05/08 01:10:58;;;;;;;6.27;3.97;;;15.40;99.90;;;;;;5110479;28;20448;-76
2023/05/08 01:13:36;;;;;;;6.27;3.80;;;15.30;99.90;;;;;;5110536;28;20445;-75
2023/05/08 01:16:11;;;;;;;5.13;4.33;;;15.30;99.90;;;;;;5111097;28;20537;-75
2023/05/08 01:18:42;;;;;;;5.33;4.00;;;15.40;99.90;;;;;;5110516;28;20438;-76
2023/05/08 01:21:16;;;;;;;6.90;4.50;;;15.40;99.90;;;;;;5110685;28;20451;-75
2023/05/08 01:24:16;;;;;;;6.53;3.87;;;15.40;99.90;;;;;;5109860;28;20961;-75
2023/05/08 01:27:01;;;;;;;6.00;4.30;;;15.50;99.90;;;;;;5074175;28;20467;-75
2023/05/08 01:29:57;;;;;;;7.27;5.70;;;15.50;99.90;;;;;;5111029;28;20450;-76
2023/05/08 01:32:29;;;;;;;6.50;4.27;;;15.50;99.90;;;;;;5083956;28;20963;-75
2023/05/08 01:35:03;;;;;;;8.37;4.90;;;15.60;99.90;;;;;;5109584;28;20530;-75
2023/05/08 01:37:36;;;;;;;5.93;4.17;;;15.40;99.90;;;;;;5108932;28;20446;-76
2023/05/08 01:40:10;;;;;;;6.93;4.60;;;15.40;99.90;;;;;;5111268;28;20451;-76
2023/05/08 01:42:48;;;;;;;7.07;4.77;;;15.40;99.90;;;;;;5110091;28;20461;-77
2023/05/08 01:45:21;;;;;;;6.37;4.20;;;15.30;99.90;;;;;;5109742;28;20972;-76
2023/05/08 01:47:55;;;;;;;6.50;4.57;;;15.30;99.90;;;;;;5110288;28;20474;-76
2023/05/08 01:50:28;;;;;;;7.97;4.97;;;15.40;99.90;;;;;;5099625;28;20443;-77
2023/05/08 01:53:03;;;;;;;7.83;4.80;;;15.40;99.90;;;;;;5109904;28;20446;-76
2023/05/08 01:55:34;;;;;;;7.90;5.70;;;15.40;99.90;;;;;;5110419;28;20445;-76
2023/05/08 01:58:04;;;;;;;8.43;5.03;;;15.40;99.90;;;;;;5110692;28;20799;-76
2023/05/08 02:00:32;;;;;;;6.20;4.60;;;15.40;99.90;;;;;;5114387;28;20462;-75
2023/05/08 02:03:01;;;;;;;7.90;5.33;;;15.30;99.90;;;;;;5113820;28;20524;-76
2023/05/08 02:05:29;;;;;;;8.53;5.50;;;15.40;99.90;;;;;;5113926;28;20439;-76
2023/05/08 02:07:56;;;;;;;5.60;4.47;;;15.40;99.90;;;;;;5113301;28;20512;-75
2023/05/08 02:10:25;;;;;;;5.50;4.00;;;15.40;99.90;;;;;;5114175;28;20436;-76
2023/05/08 02:12:53;;;;;;;6.20;4.50;;;15.30;99.90;;;;;;5113589;28;20450;-76
2023/05/08 02:15:22;;;;;;;8.10;4.60;;;15.20;99.90;;;;;;5113750;28;20538;-76
2023/05/08 02:17:50;;;;;;;8.57;5.33;;;15.30;99.90;;;;;;5112939;28;20469;-76
2023/05/08 02:20:20;;;;;;;6.30;4.60;;;15.40;99.90;;;;;;5112820;28;20443;-75
2023/05/08 02:22:50;;;;;;;5.37;3.90;;;15.40;99.90;;;;;;5113300;28;20452;-76
2023/05/08 02:25:17;;;;;;;7.67;5.90;;;15.40;99.90;;;;;;5114063;28;20432;-76
2023/05/08 02:27:46;;;;;;;6.37;3.90;;;15.40;99.90;;;;;;5112935;28;20484;-76
2023/05/08 02:30:16;;;;;;;7.07;4.70;;;15.30;99.90;;;;;;5110908;28;20451;-76
2023/05/08 02:32:44;;;;;;;9.80;5.20;;;15.30;99.90;;;;;;5111243;28;20439;-76
2023/05/08 02:35:13;;;;;;;7.20;5.13;;;15.40;99.90;;;;;;5112857;28;20509;-76
2023/05/08 02:37:43;;;;;;;7.60;4.70;;;15.40;99.90;;;;;;5113292;28;20443;-76
2023/05/08 02:40:12;;;;;;;7.10;4.97;;;15.30;99.90;;;;;;5113681;28;20455;-76
2023/05/08 02:42:40;;;;;;;7.27;4.60;;;15.20;99.90;;;;;;5112987;28;20440;-76
2023/05/08 02:45:08;;;;;;;8.53;4.70;;;15.20;99.90;;;;;;5112834;28;20447;-76
2023/05/08 02:47:42;;;;;;;8.40;5.00;;;15.10;99.90;;;;;;5112942;28;20486;-76
2023/05/08 02:50:16;;;;;;;8.30;5.17;;;15.00;99.90;;;;;;5113345;28;20455;-76
2023/05/08 02:52:48;;;;;;;6.33;4.77;;;15.10;99.90;;;;;;5112745;28;20439;-76
2023/05/08 02:55:33;;;;;;;6.73;4.60;;;15.20;99.90;;;;;;5112662;28;20463;-76
2023/05/08 02:58:07;;;;;;;7.40;4.70;;;15.30;99.90;;;;;;5112773;28;20470;-76
2023/05/08 03:00:42;;;;;;;6.97;4.60;;;15.20;99.90;;;;;;5113757;28;20459;-76
2023/05/08 03:03:16;;;;;;;9.30;4.77;;;15.20;99.90;;;;;;5113183;28;20435;-76
2023/05/08 03:05:49;;;;;;;8.20;4.87;;;15.30;99.90;;;;;;5111811;28;20439;-76
2023/05/08 03:08:23;;;;;;;6.30;3.97;;;15.40;99.90;;;;;;5111934;28;20518;-76
2023/05/08 03:10:54;;;;;;;5.53;4.17;;;15.50;99.90;;;;;;5110889;28;20458;-76
2023/05/08 03:13:21;;;;;;;7.47;4.70;;;15.50;99.90;;;;;;5112835;28;20823;-76
2023/05/08 03:15:55;;;;;;;5.30;4.60;;;15.50;99.90;;;;;;5111061;28;20531;-76
2023/05/08 03:18:27;;;;;;;6.93;5.10;;;15.30;99.90;;;;;;5112309;28;20534;-76
2023/05/08 03:20:57;;;;;;;6.73;3.80;;;15.40;99.90;;;;;;5112028;28;20814;-76
2023/05/08 03:23:28;;;;;;;5.27;3.60;;;15.50;99.90;;;;;;5112236;28;20452;-76
2023/05/08 03:25:57;;;;;;;6.90;4.70;;;15.40;99.90;;;;;;5111026;28;20444;-76
2023/05/08 03:28:25;;;;;;;4.70;3.90;;;15.50;99.90;;;;;;5112644;28;20475;-76
2023/05/08 03:30:52;;;;;;;6.90;3.80;;;15.40;99.90;;;;;;5111811;28;20448;-76
2023/05/08 03:33:21;;;;;;;5.07;3.43;;;15.40;99.90;;;;;;5112030;28;20439;-75
2023/05/08 03:35:49;;;;;;;6.37;3.63;;;15.40;99.90;;;;;;5111111;28;20480;-76
2023/05/08 03:38:17;;;;;;;5.60;3.77;;;15.40;99.90;;;;;;5110084;28;20930;-75
2023/05/08 03:40:45;;;;;;;6.53;3.73;;;15.50;99.90;;;;;;5111415;28;20568;-76
2023/05/08 03:43:13;;;;;;;4.63;3.60;;;15.50;99.90;;;;;;5110708;28;20451;-75
2023/05/08 03:45:40;;;;;;;7.10;4.20;;;15.50;99.90;;;;;;5111170;28;20444;-76
2023/05/08 03:48:09;;;;;;;7.37;3.60;;;15.50;99.90;;;;;;5111406;28;20986;-76
2023/05/08 03:50:36;;;;;;;5.70;3.83;;;15.50;99.90;;;;;;5109657;28;20451;-76
2023/05/08 03:53:03;;;;;;;5.40;3.77;;;15.50;99.90;;;;;;5111745;28;20448;-75
2023/05/08 03:55:31;;;;;;;7.70;5.13;;;15.50;99.90;;;;;;5111421;28;20462;-76
2023/05/08 03:58:05;;;;;;;5.40;3.97;;;15.60;99.90;;;;;;5110623;28;20439;-76
2023/05/08 04:00:49;;;;;;;6.27;3.67;;;15.50;99.90;;;;;;5116484;27;20485;-76
2023/05/08 04:03:23;;;;;;;6.00;4.20;;;15.60;99.90;;;;;;5112063;28;20436;-75
2023/05/08 04:05:58;;;;;;;5.73;4.23;;;15.50;99.90;;;;;;5110460;28;20795;-75
2023/05/08 04:08:28;;;;;;;6.50;4.60;;;15.60;99.90;;;;;;5110676;28;20494;-75
2023/05/08 04:11:06;;;;;;;6.30;3.70;;;15.60;99.90;;;;;;5104537;28;20689;-75
2023/05/08 04:13:43;;;;;;;5.90;3.73;;;15.60;99.90;;;;;;5111694;28;20442;-75
2023/05/08 04:16:16;;;;;;;5.10;3.40;;;15.50;99.90;;;;;;5111316;28;20821;-75
2023/05/08 04:18:46;;;;;;;6.33;3.83;;;15.60;99.90;;;;;;5110362;28;20444;-76
2023/05/08 04:21:18;;;;;;;7.87;5.17;;;15.60;99.90;;;;;;5112088;28;20513;-75
2023/05/08 04:23:47;;;;;;;6.47;4.40;;;15.60;99.90;;;;;;5103748;28;20443;-75
2023/05/08 04:26:16;;;;;;;5.70;4.00;;;15.60;99.90;;;;;;5111107;28;20464;-75
2023/05/08 04:28:46;;;;;;;6.50;4.67;;;15.60;99.90;;;;;;5108634;28;20481;-75
2023/05/08 04:31:15;;;;;;;7.20;4.97;;;15.60;99.90;;;;;;5102204;28;20455;-76
2023/05/08 04:33:42;;;;;;;5.43;3.70;;;15.60;99.90;;;;;;5110790;28;20455;-76
2023/05/08 04:36:12;;;;;;;6.87;3.80;;;15.60;99.90;;;;;;5111420;28;20513;-76
2023/05/08 04:38:39;;;;;;;5.40;4.70;;;15.60;99.90;;;;;;5110693;28;20530;-76
2023/05/08 04:41:05;;;;;;;6.80;4.00;;;15.60;99.90;;;;;;5110202;28;20454;-76
2023/05/08 04:43:32;;;;;;;7.60;4.23;;;15.60;99.90;;;;;;5111469;28;20473;-76
2023/05/08 04:46:01;;;;;;;6.70;4.00;;;15.70;99.90;;;;;;5110197;28;20531;-76
2023/05/08 04:48:30;;;;;;;4.47;3.60;;;15.70;99.90;;;;;;5109654;28;21303;-76
2023/05/08 04:50:56;;;;;;;5.80;3.83;;;15.70;99.90;;;;;;5110707;28;20771;-75
2023/05/08 04:53:23;;;;;;;6.60;4.37;;;15.70;99.90;;;;;;5110511;28;20443;-75
2023/05/08 04:55:50;;;;;;;6.50;4.67;;;15.70;99.90;;;;;;5110041;28;20811;-75
2023/05/08 04:58:17;;;;;;;6.20;4.17;;;15.80;99.90;;;;;;5110219;28;20443;-75
2023/05/08 05:00:43;;;;;;;7.23;5.10;;;15.70;99.90;;;;;;5110667;28;20463;-75
2023/05/08 05:03:12;;;;;;;5.27;4.20;;;15.70;99.90;;;;;;5111326;28;20448;-75
2023/05/08 05:05:38;;;;;;;7.30;4.40;;;15.70;99.90;;;;;;5110227;28;20815;-75
2023/05/08 05:08:05;;;;;;;6.67;4.03;;;15.70;99.90;;;;;;5110332;28;20487;-76
2023/05/08 05:10:32;;;;;;;7.17;4.90;;;15.70;99.90;;;;;;5111125;28;20439;-81
2023/05/08 05:12:59;;;;;;;8.13;5.30;;;15.70;99.90;;;;;;5110113;28;20458;-79
2023/05/08 05:15:26;;;;;;;7.93;5.03;;;15.70;99.90;;;;;;5106327;28;20454;-76
2023/05/08 05:17:52;;;;;;;8.10;4.60;;;15.70;99.90;;;;;;5109949;28;20448;-75
2023/05/08 05:20:21;;;;;;;6.37;4.90;;;15.70;99.90;;;;;;5110001;28;20498;-75
2023/05/08 05:22:47;;;;;;;6.33;4.70;;;15.70;99.90;;;;;;5109890;28;20813;-79
2023/05/08 05:25:14;;;;;;;7.53;5.00;;;15.60;99.90;;;;;;5110139;28;20480;-74
2023/05/08 05:27:41;;;;;;;7.60;5.27;;;15.70;99.90;;;;;;5109263;28;20456;-73
2023/05/08 05:30:09;;;;;;;7.13;4.77;;;15.80;99.90;;;;;;5109732;28;20487;-73
2023/05/08 05:32:36;;;;;;;6.50;4.13;;;15.70;99.90;;;;;;5109182;28;20455;-74
2023/05/08 05:35:03;;;;;;;8.00;5.43;;;15.70;99.90;;;;;;5107266;28;20448;-76
2023/05/08 05:37:31;;;;;;;6.93;4.23;;;15.70;99.90;;;;;;5110139;28;20444;-75
2023/05/08 05:39:58;;;;;;;7.20;5.37;;;15.70;99.90;;;;;;5110613;28;20443;-76
2023/05/08 05:42:25;;;;;;;8.20;4.80;;;15.90;99.90;;;;;;5111326;28;20470;-76
2023/05/08 05:44:52;;;;;;;6.00;5.00;;;16.10;99.90;;;;;;5111681;28;20447;-75
2023/05/08 05:47:18;;;;;;;6.90;5.40;;;16.20;99.90;;;;;;5111504;28;20454;-75
2023/05/08 05:49:46;;;;;;;8.47;4.70;;;16.30;99.90;;;;;;5096775;28;20487;-74
2023/05/08 05:52:13;;;;;;;7.37;4.83;;;16.10;99.90;;;;;;5111121;28;20448;-74
2023/05/08 05:54:41;;;;;;;6.77;4.73;;;16.10;99.90;;;;;;5109934;28;20446;-74
2023/05/08 05:57:08;;;;;;;5.70;4.10;;;16.10;99.90;;;;;;5111283;28;20448;-75
2023/05/08 05:59:35;;;;;;;6.87;4.60;;;16.10;99.90;;;;;;5110916;28;20756;-76
2023/05/08 06:02:02;;;;;;;6.33;5.17;;;16.00;99.90;;;;;;5113816;28;20438;-77
2023/05/08 06:04:29;;;;;;;5.67;4.17;;;16.00;99.90;;;;;;5103389;28;20820;-76
2023/05/08 06:06:55;;;;;;;5.70;3.73;;;16.00;99.90;;;;;;5110638;28;20643;-77
2023/05/08 06:09:22;;;;;;;5.50;3.43;;;16.10;99.90;;;;;;5108365;28;21039;-75
2023/05/08 06:11:50;;;;;;;6.80;5.07;;;16.10;99.90;;;;;;5110086;28;20444;-76
2023/05/08 06:14:17;;;;;;;6.53;3.90;;;16.10;99.90;;;;;;5110091;28;20462;-76
2023/05/08 06:16:44;;;;;;;9.80;4.37;;;16.00;99.90;;;;;;5119238;28;20446;-76
2023/05/08 06:19:11;;;;;;;5.37;4.03;;;16.00;99.90;;;;;;5115286;28;20459;-80
2023/05/08 06:21:38;;;;;;;5.80;4.43;;;16.00;99.90;;;;;;5109140;28;20460;-73
2023/05/08 06:24:06;;;;;;;5.23;3.43;;;16.00;99.90;;;;;;5109413;28;20483;-75
2023/05/08 06:26:33;;;;;;;5.87;4.33;;;15.90;99.90;;;;;;5108462;28;20444;-75
2023/05/08 06:29:01;;;;;;;6.33;4.23;;;15.90;99.90;;;;;;5109193;28;20474;-76
2023/05/08 06:31:28;;;;;;;6.40;4.53;;;15.90;99.90;;;;;;5114101;28;20858;-79
2023/05/08 06:33:55;;;;;;;5.00;4.00;;;16.00;99.90;;;;;;5109375;28;20436;-75
2023/05/08 06:36:21;;;;;;;6.10;3.70;;;15.90;99.90;;;;;;5110380;28;20458;-73
2023/05/08 06:38:48;;;;;;;5.97;4.10;;;15.90;99.90;;;;;;5109771;28;20463;-74
2023/05/08 06:41:15;;;;;;;8.13;4.90;;;16.10;99.90;;;;;;5110320;28;20444;-76
2023/05/08 06:43:42;;;;;;;5.30;3.63;;;16.00;99.90;;;;;;5109943;28;20455;-75
2023/05/08 06:46:10;;;;;;;5.77;3.80;;;15.80;99.90;;;;;;5111231;28;20923;-75
2023/05/08 06:48:37;;;;;;;4.90;4.10;;;15.90;99.90;;;;;;5111046;28;20459;-75
2023/05/08 06:51:04;;;;;;;5.67;4.07;;;15.90;99.90;;;;;;5114418;28;20451;-75
2023/05/08 06:53:31;;;;;;;6.47;4.40;;;16.00;99.90;;;;;;5114246;28;20448;-75
2023/05/08 06:55:58;;;;;;;7.90;4.87;;;16.00;99.90;;;;;;5112743;28;20512;-75
2023/05/08 06:58:25;;;;;;;5.03;3.80;;;16.00;99.90;;;;;;5113237;28;20927;-76
2023/05/08 07:00:51;;;;;;;5.63;3.40;;;16.10;99.90;;;;;;5112537;27;20862;-73
2023/05/08 07:03:20;;;;;;;7.37;4.70;;;16.10;99.90;;;;;;5113711;28;20760;-73
2023/05/08 07:05:46;;;;;;;7.40;4.20;;;16.10;99.90;;;;;;5112618;28;20440;-76
2023/05/08 07:08:13;;;;;;;6.13;3.87;;;16.20;99.90;;;;;;5113023;28;20482;-79
2023/05/08 07:10:40;;;;;;;5.10;3.40;;;16.20;99.90;;;;;;5112756;28;20828;-74
2023/05/08 07:13:07;;;;;;;5.10;4.07;;;16.20;99.90;;;;;;5113819;28;20448;-77
2023/05/08 07:15:33;;;;;;;7.87;4.87;;;16.20;99.90;;;;;;5113312;28;20480;-78
2023/05/08 07:18:00;;;;;;;6.23;3.97;;;16.20;99.90;;;;;;5112421;28;20530;-79
2023/05/08 07:20:29;;;;;;;5.50;4.10;;;16.20;99.90;;;;;;5113378;28;20474;-81
2023/05/08 07:22:56;;;;;;;4.80;3.87;;;16.20;99.90;;;;;;5112147;28;20950;-76
2023/05/08 07:25:23;;;;;;;4.83;3.70;;;16.30;99.90;;;;;;5113561;28;20851;-80
2023/05/08 07:27:50;;;;;;;4.87;3.47;;;16.30;99.90;;;;;;5113171;28;20452;-79
2023/05/08 07:30:17;;;;;;;5.90;3.97;;;16.30;99.90;;;;;;5112536;28;21025;-77
2023/05/08 07:32:44;;;;;;;5.20;3.83;;;16.40;99.90;;;;;;5113326;27;20439;-77
2023/05/08 07:35:11;;;;;;;7.63;4.60;;;16.30;99.90;;;;;;5113039;28;20965;-78
2023/05/08 07:37:39;;;;;;;5.03;4.17;;;16.30;99.90;;;;;;5112240;28;20946;-76
2023/05/08 07:40:07;;;;;;;5.80;4.17;;;16.40;99.90;;;;;;5112512;28;20459;-76
2023/05/08 07:42:39;;;;;;;4.70;3.63;;;16.40;99.90;;;;;;5111335;28;20448;-78
2023/05/08 07:45:07;;;;;;;5.03;3.40;;;16.50;99.90;;;;;;5112958;28;20444;-75
2023/05/08 07:47:34;;;;;;;5.27;3.90;;;16.50;99.90;;;;;;5104551;28;20443;-77
2023/05/08 07:50:01;;;;;;;4.60;4.10;;;16.50;99.90;;;;;;5112523;28;20472;-78
2023/05/08 07:52:28;;;;;;;4.70;3.67;;;16.60;99.90;;;;;;5109446;27;20963;-78
2023/05/08 07:54:56;;;;;;;6.80;4.97;;;16.60;99.90;;;;;;5105965;28;20440;-77
2023/05/08 07:57:23;;;;;;;6.50;4.67;;;16.50;99.90;;;;;;5109961;28;20563;-78
2023/05/08 07:59:50;;;;;;;8.60;4.30;;;16.50;99.90;;;;;;5109084;28;20459;-77
2023/05/08 08:02:17;;;;;;;6.27;4.60;;;16.50;99.90;;;;;;5110314;28;20447;-77
2023/05/08 08:04:44;;;;;;;5.53;3.90;;;16.50;99.90;;;;;;5109207;28;20443;-77
2023/05/08 08:07:11;;;;;;;4.93;3.93;;;16.50;99.90;;;;;;5109546;28;20440;-76
2023/05/08 08:09:38;;;;;;;5.60;4.10;;;16.50;99.90;;;;;;5109068;28;20990;-76
2023/05/08 08:12:06;;;;;;;4.93;3.53;;;16.50;99.90;;;;;;5108345;28;20466;-76
2023/05/08 08:14:33;;;;;;;4.97;3.07;;;16.50;99.90;;;;;;5110358;28;20816;-76
2023/05/08 08:17:00;;;;;;;7.27;3.50;;;16.50;99.90;;;;;;5108162;28;20451;-77
2023/05/08 08:19:26;;;;;;;3.30;2.47;;;16.50;99.90;;;;;;5109778;28;20463;-77
2023/05/08 08:21:53;;;;;;;6.27;3.03;;;16.60;99.90;;;;;;5108791;28;20459;-76
2023/05/08 08:24:20;;;;;;;5.30;2.50;;;16.50;99.90;;;;;;5109041;28;20457;-77
2023/05/08 08:26:47;;;;;;;3.67;2.30;;;16.50;99.90;;;;;;5108533;28;20476;-77
2023/05/08 08:29:15;;;;;;;4.53;2.73;;;16.50;99.90;;;;;;5107335;28;20479;-77
2023/05/08 08:31:42;;;;;;;3.73;2.30;;;16.60;99.90;;;;;;5107619;28;20447;-76
2023/05/08 08:34:08;;;;;;;4.13;2.80;;;16.60;99.90;;;;;;5106422;28;21017;-75
2023/05/08 08:36:36;;;;;;;5.67;2.87;;;16.50;99.90;;;;;;5109798;28;20444;-76
2023/05/08 08:39:02;;;;;;;4.77;2.40;;;16.60;99.90;;;;;;5109330;28;20516;-75
2023/05/08 08:41:29;;;;;;;3.10;2.50;;;16.40;99.90;;;;;;5109131;28;20454;-78
2023/05/08 08:43:56;;;;;;;3.33;2.07;;;16.40;99.90;;;;;;5108037;28;20451;-77
2023/05/08 08:46:26;;;;;;;3.90;2.70;;;16.50;99.90;;;;;;5115066;27;20452;-77
2023/05/08 08:48:55;;;;;;;3.47;2.27;;;16.50;99.90;;;;;;5109052;28;20458;-76
2023/05/08 08:51:27;;;;;;;3.97;2.20;;;16.60;99.90;;;;;;5109023;28;20532;-77
2023/05/08 08:54:03;;;;;;;4.33;2.63;;;16.60;99.90;;;;;;5091539;28;20825;-75
2023/05/08 08:56:31;;;;;;;3.37;1.77;;;16.70;99.90;;;;;;5104209;28;20439;-77
2023/05/08 08:59:00;;;;;;;4.00;2.00;;;16.60;99.90;;;;;;5096917;28;20608;-74
2023/05/08 09:01:29;;;;;;;3.70;2.17;;;16.50;99.90;;;;;;5108249;28;20448;-78
2023/05/08 09:03:58;;;;;;;3.67;2.33;;;16.40;99.90;;;;;;5107466;28;20455;-78
2023/05/08 09:06:26;;;;;;;5.23;3.43;;;16.20;99.90;;;;;;5109866;28;20989;-78
2023/05/08 09:08:56;;;;;;;3.53;2.40;;;16.20;99.90;;;;;;5109900;28;20950;-79
2023/05/08 09:11:23;;;;;;;3.37;2.40;;;16.20;99.90;;;;;;5111690;28;20882;-78
2023/05/08 09:13:50;;;;;;;2.97;2.37;;;16.20;99.90;;;;;;5110910;28;20454;-78
2023/05/08 09:16:17;;;;;;;2.70;2.27;;;16.30;99.90;;;;;;5111764;28;20452;-77
2023/05/08 09:18:45;;;;;;;5.17;3.40;;;16.30;99.90;;;;;;5111069;28;20447;-77
2023/05/08 09:21:13;;;;;;;3.80;2.60;;;16.40;99.90;;;;;;5110861;28;20452;-77
2023/05/08 09:23:55;;;;;;;3.77;2.20;;;16.50;99.90;;;;;;5111184;28;20451;-77
2023/05/08 09:26:33;;;;;;;5.30;2.80;;;16.50;99.90;;;;;;5111736;28;20509;-78
2023/05/08 09:29:11;;;;;;;6.80;4.30;;;16.70;99.90;;;;;;5111130;28;20466;-78
2023/05/08 09:31:40;;;;;;;5.17;2.83;;;16.60;99.90;;;;;;5110493;28;20440;-76
2023/05/08 09:34:10;;;;;;;4.73;3.03;;;16.80;99.90;;;;;;5115575;28;20450;-77
2023/05/08 09:36:39;;;;;;;4.10;2.73;;;16.90;99.90;;;;;;5115874;28;20522;-75
2023/05/08 09:39:11;;;;;;;4.03;2.77;;;17.00;99.90;;;;;;5116283;28;20474;-78
2023/05/08 09:41:38;;;;;;;3.53;2.50;;;17.20;99.90;;;;;;5116196;28;20443;-75
2023/05/08 09:44:06;;;;;;;4.77;2.83;;;17.40;99.90;;;;;;5117133;28;20454;-78
2023/05/08 09:46:34;;;;;;;4.93;2.60;;;17.40;99.90;;;;;;5115649;28;20447;-78
2023/05/08 09:49:02;;;;;;;4.17;2.57;;;17.40;99.90;;;;;;5115995;28;20446;-78
2023/05/08 09:51:32;;;;;;;4.93;3.13;;;17.50;99.90;;;;;;5116762;28;20851;-79
2023/05/08 09:53:59;;;;;;;5.27;2.73;;;17.70;99.90;;;;;;5116404;28;20448;-77
2023/05/08 09:56:33;;;;;;;4.00;2.70;;;17.80;99.90;;;;;;5116166;28;20470;-78
2023/05/08 09:59:01;;;;;;;3.73;2.57;;;17.90;99.90;;;;;;5118893;28;20447;-78
2023/05/08 10:01:30;;;;;;;4.33;2.43;;;17.90;99.90;;;;;;5117909;28;20462;-78
2023/05/08 10:03:58;;;;;;;4.00;2.53;;;18.00;99.90;;;;;;5118297;28;20517;-77
2023/05/08 10:06:27;;;;;;;3.00;1.80;;;18.00;99.90;;;;;;5116393;28;20468;-77
2023/05/08 10:09:12;;;;;;;2.50;1.70;;;18.30;99.90;;;;;;5114974;28;20533;-78
2023/05/08 10:11:40;;;;;;;3.80;2.27;;;18.50;99.90;;;;;;5114452;28;20523;-77
2023/05/08 10:14:07;;;;;;;3.10;2.03;;;18.50;99.90;;;;;;5114990;28;20451;-77
2023/05/08 10:16:40;;;;;;;3.70;2.07;;;18.50;99.90;;;;;;5111932;28;20458;-78
2023/05/08 10:19:12;;;;;;;3.13;2.30;;;18.30;99.90;;;;;;5110832;28;20440;-78
2023/05/08 10:21:43;;;;;;;2.93;1.60;;;18.20;99.90;;;;;;5113214;28;20451;-79
2023/05/08 10:24:15;;;;;;;4.00;2.20;;;18.20;99.90;;;;;;5115749;28;20481;-78
2023/05/08 10:26:44;;;;;;;3.47;2.13;;;18.30;99.90;;;;;;5113559;28;20444;-77
2023/05/08 10:29:18;;;;;;;2.50;2.10;;;18.20;99.90;;;;;;5110961;28;20440;-79
2023/05/08 10:31:47;;;;;;;4.20;2.40;;;18.20;99.90;;;;;;5113077;28;20521;-78
2023/05/08 10:34:19;;;;;;;3.30;1.97;;;18.20;99.90;;;;;;5114050;27;20446;-76
2023/05/08 10:36:47;;;;;;;5.10;2.20;;;18.10;99.90;;;;;;5113721;28;20861;-75
2023/05/08 10:39:16;;;;;;;2.17;1.50;;;18.10;99.90;;;;;;5114157;27;20443;-76
2023/05/08 10:41:43;;;;;;;3.20;2.40;;;18.00;99.90;;;;;;5114662;27;20782;-77
2023/05/08 10:44:10;;;;;;;2.40;2.03;;;17.90;99.90;;;;;;5114083;28;20450;-79
2023/05/08 10:46:44;;;;;;;3.93;2.97;;;17.90;99.90;;;;;;5113663;28;20770;-75
2023/05/08 10:49:20;;;;;;;3.10;2.60;;;17.90;99.90;;;;;;5113924;28;20934;-77
2023/05/08 10:51:56;;;;;;;5.73;2.90;;;17.90;99.90;;;;;;5112185;28;20463;-79
2023/05/08 10:54:30;;;;;;;2.87;2.27;;;17.90;99.90;;;;;;5113019;27;20546;-79
2023/05/08 10:57:09;;;;;;;4.00;2.10;;;17.90;99.90;;;;;;5112249;28;20516;-78
2023/05/08 10:59:36;;;;;;;3.90;2.20;;;18.10;99.90;;;;;;5113337;28;20443;-74
2023/05/08 11:02:06;;;;;;;3.47;2.20;;;18.10;99.90;;;;;;5113258;28;20440;-77
2023/05/08 11:04:34;;;;;;;3.23;1.93;;;18.30;99.90;;;;;;5111243;28;20508;-80
2023/05/08 11:07:03;;;;;;;2.77;2.00;;;18.30;99.90;;;;;;5114377;28;20476;-79
2023/05/08 11:09:46;;;;;;;2.57;1.73;;;18.30;99.90;;;;;;5113784;28;20502;-79
2023/05/08 11:12:21;;;;;;;2.80;1.47;;;18.50;99.90;;;;;;5113999;28;20435;-79
2023/05/08 11:14:57;;;;;;;2.50;1.73;;;18.70;99.90;;;;;;5112910;28;20526;-78
2023/05/08 11:17:25;;;;;;;2.70;1.83;;;18.80;99.90;;;;;;5125299;27;20798;-80
2023/05/08 11:19:56;;;;;;;4.20;2.10;;;;;;;;;;5112245;28;20505;-77
2023/05/08 11:22:25;;;;;;;2.57;1.80;;;;;;;;;;5113154;28;20444;-80
2023/05/08 11:24:55;;;;;;;3.00;1.73;;;;;;;;;;5113024;28;20802;-79
2023/05/08 11:27:32;;;;;;;2.57;1.77;;;;;;;;;;5114041;28;20443;-78
2023/05/08 11:30:17;;;;;;;3.13;1.57;;;;;;;;;;5112744;28;20439;-78
2023/05/08 11:32:57;;;;;;;2.73;1.63;;;;;;;;;;5112279;28;20821;-79
2023/05/08 11:35:40;;;;;;;3.73;2.10;;;19.20;99.90;;;;;;5113323;28;20456;-79
2023/05/08 11:38:22;;;;;;;3.77;2.03;;;20.30;99.90;;;;;;5112615;28;20455;-79
2023/05/08 11:40:56;;;;;;;3.10;2.17;;;20.30;99.90;;;;;;5111916;28;20450;-79
2023/05/08 11:43:31;;;;;;;3.33;2.10;;;20.40;1.00;;;;;;5113189;28;20443;-80
2023/05/08 11:46:01;;;;;;;3.60;2.80;;;20.30;1.00;;;;;;5112957;28;20453;-79
2023/05/08 11:48:27;;;;;;;4.57;2.63;;;20.20;1.00;;;;;;5110054;28;20537;-75
2023/05/08 11:50:54;;;;;;;4.37;2.90;;;20.20;99.90;;;;;;5101127;28;20528;-79
2023/05/08 11:53:21;;;;;;;3.50;2.83;;;20.10;99.90;;;;;;5112560;28;20948;-79
2023/05/08 11:55:49;;;;;;;2.80;2.10;;;20.10;1.00;;;;;;5111613;28;20448;-79
2023/05/08 11:58:17;;;;;;;4.47;3.00;;;20.10;1.00;;;;;;5112313;28;20546;-76
2023/05/08 12:00:44;;;;;;;4.80;3.00;;;20.10;1.00;;;;;;5111498;28;20455;-76
2023/05/08 12:03:15;;;;;;;4.43;2.50;;;20.10;99.90;;;;;;5112883;28;20864;-76
2023/05/08 12:05:43;;;;;;;3.80;2.87;;;20.00;1.00;;;;;;5112438;28;20447;-76
2023/05/08 12:08:11;;;;;;;4.40;3.17;;;20.20;1.00;;;;;;5109070;28;20982;-79
2023/05/08 12:10:48;;;;;;;4.27;2.63;;;20.00;1.00;;;;;;5111381;28;20475;-75
2023/05/08 12:13:17;;;;;;;4.30;2.60;;;20.50;99.90;;;;;;5112707;28;20443;-75
2023/05/08 12:15:45;;;;;;;3.87;3.00;;;20.90;99.90;;;;;;5111408;28;20444;-79
2023/05/08 12:18:12;;;;;;;4.23;3.83;;;21.10;66.70;;;;;;5111972;28;20450;-78
2023/05/08 12:20:39;;;;;;;5.80;2.60;;;21.10;1.00;;;;;;5110884;28;20513;-72
2023/05/08 12:23:07;;;;;;;4.77;3.43;;;20.90;99.90;;;;;;5112007;28;20448;-72
2023/05/08 12:25:34;;;;;;;4.27;3.07;;;20.90;1.00;;;;;;5112296;28;20459;-74
2023/05/08 12:28:01;;;;;;;5.90;3.80;;;21.00;1.00;;;;;;5112335;28;20475;-75
2023/05/08 12:30:30;;;;;;;5.00;3.63;;;21.00;99.90;;;;;;5110941;28;20455;-75
2023/05/08 12:32:57;;;;;;;6.10;3.57;;;21.20;99.90;;;;;;5110640;28;20448;-75
2023/05/08 12:35:24;;;;;;;3.60;2.40;;;21.40;82.40;;;;;;5111218;28;20523;-75
2023/05/08 12:37:52;;;;;;;6.17;3.57;;;21.40;1.00;;;;;;5110684;28;20465;-75
2023/05/08 12:40:26;;;;;;;3.93;3.00;;;21.30;1.00;;;;;;5110377;28;20444;-77
2023/05/08 12:42:53;;;;;;;4.93;3.40;;;21.40;1.00;;;;;;5111191;28;20447;-76
2023/05/08 12:45:21;;;;;;;3.23;2.40;;;21.50;1.00;;;;;;5111407;28;20450;-76
2023/05/08 12:47:51;;;;;;;3.20;2.53;;;21.70;1.00;;;;;;5111293;28;20444;-76
2023/05/08 12:50:20;;;;;;;4.13;3.20;;;22.00;1.00;;;;;;5110842;28;20446;-76
2023/05/08 12:52:48;;;;;;;3.87;2.87;;;21.90;1.00;;;;;;5103222;28;20448;-77
2023/05/08 12:55:25;;;;;;;4.37;2.80;;;21.90;1.00;;;;;;5111226;28;20475;-77
2023/05/08 12:58:00;;;;;;;2.83;2.53;;;21.60;1.00;;;;;;5104259;28;20432;-74
2023/05/08 13:00:38;;;;;;;3.97;2.70;;;21.50;1.00;;;;;;5098646;28;20443;-74
2023/05/08 13:03:07;;;;;;;3.87;2.50;;;21.50;1.00;;;;;;5111387;28;20440;-74